Time;durP1;ratioP1;P1;durP2;ratioP2;P2;SDS_P1;SDS_P2;PMS_P1;PMS_P2;Temp;Humidity;BMP_temperature;BMP_pressure;BME280_temperature;BME280_humidity;BME280_pressure;Samples;Min_cycle;Max_cycle;Signal;HPM_P1;HPM_P2
2022/09/16 00:00:20;;;;;;;0.20;0.20;;;13.60;99.90;13.70;99610.00;;;;4898821;28;86882;-62
2022/09/16 00:02:46;;;;;;;0.57;0.40;;;13.60;99.90;13.60;99606.00;;;;4897882;28;99890;-63
2022/09/16 00:05:12;;;;;;;0.50;0.30;;;13.60;99.90;13.60;99612.00;;;;4897457;28;108049;-62
2022/09/16 00:07:38;;;;;;;0.67;0.47;;;13.60;99.90;13.60;99620.00;;;;4897472;28;117678;-63
2022/09/16 00:10:05;;;;;;;4.53;0.40;;;13.60;99.90;13.60;99621.00;;;;4897773;28;110110;-63
2022/09/16 00:12:31;;;;;;;3.40;0.87;;;13.50;99.90;13.50;99608.00;;;;4898325;28;97256;-62
2022/09/16 00:14:57;;;;;;;1.90;1.07;;;13.50;99.90;13.50;99613.00;;;;4897357;28;88874;-63
2022/09/16 00:17:23;;;;;;;0.30;0.20;;;13.50;99.90;13.50;99614.00;;;;4898263;28;88760;-63
2022/09/16 00:19:49;;;;;;;2.00;0.57;;;13.50;99.90;13.50;99613.00;;;;4894867;28;100180;-63
2022/09/16 00:22:18;;;;;;;0.20;0.20;;;13.40;99.90;13.40;99622.00;;;;4898565;28;87678;-62
2022/09/16 00:24:44;;;;;;;0.20;0.20;;;13.30;99.90;13.40;99611.00;;;;4897133;28;108545;-62
2022/09/16 00:27:10;;;;;;;1.27;0.70;;;13.40;99.90;13.40;99619.00;;;;4897047;28;116342;-63
2022/09/16 00:29:36;;;;;;;0.83;0.70;;;13.40;99.90;13.40;99610.00;;;;4898454;28;87603;-63
2022/09/16 00:32:01;;;;;;;0.30;0.30;;;13.40;99.90;13.40;99617.00;;;;4897336;28;108833;-62
2022/09/16 00:34:27;;;;;;;1.03;0.70;;;13.30;99.90;13.30;99625.00;;;;4896903;28;117184;-62
2022/09/16 00:36:53;;;;;;;1.87;0.53;;;13.30;99.90;13.30;99617.00;;;;4897090;28;101554;-62
2022/09/16 00:39:18;;;;;;;2.70;0.30;;;13.30;99.90;13.30;99620.00;;;;4896868;28;110294;-63
2022/09/16 00:41:44;;;;;;;0.30;0.27;;;13.30;99.90;13.30;99624.00;;;;4897498;28;108218;-61
2022/09/16 00:44:49;;;;;;;0.80;0.40;;;13.30;99.90;13.20;99617.00;;;;4896057;28;117726;-62
2022/09/16 00:47:21;;;;;;;0.57;0.53;;;13.20;99.90;13.20;99628.00;;;;4897536;28;87898;-62
2022/09/16 00:49:48;;;;;;;0.20;0.20;;;13.20;99.90;13.20;99624.00;;;;4911797;28;99537;-62
2022/09/16 00:52:15;;;;;;;0.20;0.20;;;13.10;99.90;13.10;99633.00;;;;4897939;28;88078;-62
2022/09/16 00:54:42;;;;;;;0.27;0.27;;;13.10;99.90;13.10;99619.00;;;;4896272;28;118476;-61
2022/09/16 00:57:10;;;;;;;0.60;0.60;;;13.10;99.90;13.10;99622.00;;;;4896681;28;117455;-61
2022/09/16 00:59:40;;;;;;;0.33;0.33;;;13.10;99.90;13.00;99614.00;;;;4879707;28;87884;-62
2022/09/16 01:02:10;;;;;;;0.40;0.40;;;13.00;99.90;13.00;99620.00;;;;4879046;28;96332;-62
2022/09/16 01:04:50;;;;;;;0.53;0.50;;;13.00;99.90;13.00;99616.00;;;;4894665;28;88656;-62
2022/09/16 01:07:30;;;;;;;1.07;0.50;;;13.00;99.90;13.00;99624.00;;;;4894389;28;103690;-62
2022/09/16 01:09:56;;;;;;;1.30;0.40;;;13.00;99.90;13.00;99621.00;;;;4879696;28;87699;-62
2022/09/16 01:12:22;;;;;;;0.60;0.43;;;12.90;99.90;12.90;99619.00;;;;4896980;28;101119;-62
2022/09/16 01:14:53;;;;;;;0.50;0.50;;;12.90;99.90;12.90;99614.00;;;;4894338;28;108721;-62
2022/09/16 01:17:34;;;;;;;1.00;0.30;;;12.90;99.90;12.90;99620.00;;;;4897530;28;87685;-62
2022/09/16 01:20:49;;;;;;;0.40;0.37;;;12.90;99.90;12.80;99624.00;;;;4896876;28;87807;-61
2022/09/16 01:23:37;;;;;;;1.70;0.47;;;12.90;99.90;12.80;99619.00;;;;4896703;28;88720;-62
2022/09/16 01:26:23;;;;;;;0.80;0.53;;;12.80;99.90;12.80;99621.00;;;;4897319;28;88182;-61
2022/09/16 01:29:25;;;;;;;0.73;0.40;;;12.80;99.90;12.80;99619.00;;;;4896821;28;88977;-62
2022/09/16 01:32:25;;;;;;;0.93;0.60;;;12.80;99.90;12.70;99608.00;;;;4896231;28;87761;-61
2022/09/16 01:35:29;;;;;;;0.63;0.53;;;12.80;99.90;12.70;99615.00;;;;4910892;28;87825;-61
2022/09/16 01:38:07;;;;;;;1.77;0.63;;;12.80;99.90;12.70;99609.00;;;;4877306;28;112541;-62
2022/09/16 01:41:05;;;;;;;0.73;0.33;;;12.80;99.90;12.70;99615.00;;;;4896430;28;100020;-62
2022/09/16 01:43:56;;;;;;;0.57;0.57;;;12.70;99.90;12.70;99619.00;;;;4910096;28;87295;-62
2022/09/16 01:46:45;;;;;;;1.77;0.53;;;12.70;99.90;12.70;99621.00;;;;4894992;28;87968;-62
2022/09/16 01:49:22;;;;;;;0.40;0.40;;;12.70;99.90;12.70;99615.00;;;;4908381;28;89164;-62
2022/09/16 01:52:05;;;;;;;0.37;0.37;;;12.70;99.90;12.70;99619.00;;;;4910310;28;106211;-61
2022/09/16 01:54:40;;;;;;;0.60;0.60;;;12.70;99.90;12.70;99618.00;;;;4910649;28;102131;-62
2022/09/16 01:57:38;;;;;;;0.53;0.47;;;12.70;99.90;12.60;99611.00;;;;4895597;28;96668;-60
2022/09/16 02:00:10;;;;;;;5.83;0.53;;;12.70;99.90;12.60;99609.00;;;;4895306;28;110688;-62
2022/09/16 02:02:45;;;;;;;0.20;0.20;;;12.60;99.90;12.60;99620.00;;;;4893747;28;88065;-61
2022/09/16 02:05:18;;;;;;;1.90;0.40;;;12.60;99.90;12.60;99623.00;;;;4896513;28;91702;-62
2022/09/16 02:07:50;;;;;;;0.60;0.60;;;12.60;99.90;12.60;99618.00;;;;4910299;28;88108;-62
2022/09/16 02:10:28;;;;;;;0.40;0.40;;;12.60;99.90;12.60;99619.00;;;;4894459;28;105524;-62
2022/09/16 02:13:03;;;;;;;1.10;0.87;;;12.50;99.90;12.50;99619.00;;;;4878743;28;87864;-61
2022/09/16 02:15:32;;;;;;;0.80;0.67;;;12.50;99.90;12.50;99610.00;;;;4892417;28;100894;-60
2022/09/16 02:18:08;;;;;;;1.43;0.80;;;12.50;99.90;12.40;99612.00;;;;4878259;28;89279;-61
2022/09/16 02:20:39;;;;;;;2.93;0.53;;;12.50;99.90;12.40;99611.00;;;;4909011;28;106481;-61
2022/09/16 02:23:19;;;;;;;0.30;0.30;;;12.40;99.90;12.30;99618.00;;;;4893923;28;89739;-62
2022/09/16 02:25:47;;;;;;;0.97;0.63;;;12.40;99.90;12.30;99615.00;;;;4878482;28;87925;-62
2022/09/16 02:28:22;;;;;;;1.07;0.80;;;12.30;99.90;12.30;99617.00;;;;4910464;28;87647;-62
2022/09/16 02:30:54;;;;;;;0.57;0.27;;;12.30;99.90;12.20;99622.00;;;;4893028;28;112112;-62
2022/09/16 02:33:22;;;;;;;0.70;0.57;;;12.20;99.90;12.10;99617.00;;;;4894526;28;106840;-61
2022/09/16 02:35:52;;;;;;;0.60;0.60;;;12.20;99.90;12.10;99614.00;;;;4910886;28;86979;-62
2022/09/16 02:38:31;;;;;;;0.37;0.30;;;12.10;99.90;12.00;99609.00;;;;4895965;28;87772;-62
2022/09/16 02:41:00;;;;;;;3.50;0.80;;;12.10;99.90;12.00;99604.00;;;;4894161;28;106340;-62
2022/09/16 02:43:27;;;;;;;0.70;0.70;;;12.00;99.90;12.00;99605.00;;;;4911977;28;89185;-61
2022/09/16 02:46:20;;;;;;;0.40;0.40;;;12.00;99.90;11.90;99605.00;;;;4881356;28;90665;-61
2022/09/16 02:49:02;;;;;;;0.37;0.37;;;11.90;99.90;11.90;99608.00;;;;4898315;28;102554;-61
2022/09/16 02:51:58;;;;;;;0.50;0.50;;;11.90;99.90;11.80;99605.00;;;;4912704;28;88636;-61
2022/09/16 02:54:50;;;;;;;0.77;0.47;;;12.20;99.90;11.80;99618.00;;;;4899180;28;88208;-62
2022/09/16 02:57:16;;;;;;;0.87;0.40;;;11.80;99.90;11.80;99625.00;;;;4879985;28;100086;-62
2022/09/16 02:59:42;;;;;;;0.90;0.83;;;11.80;99.90;11.80;99626.00;;;;4881038;28;108923;-61
2022/09/16 03:02:08;;;;;;;0.93;0.57;;;11.80;99.90;11.70;99634.00;;;;4881152;28;116932;-61
2022/09/16 03:04:35;;;;;;;0.80;0.53;;;11.70;99.90;11.70;99635.00;;;;4880527;28;115425;-63
2022/09/16 03:07:04;;;;;;;0.83;0.83;;;11.70;99.90;11.70;99627.00;;;;4899533;28;87818;-62
2022/09/16 03:09:30;;;;;;;1.53;0.50;;;11.70;99.90;11.70;99624.00;;;;4898473;28;90149;-61
2022/09/16 03:12:33;;;;;;;2.30;0.93;;;11.70;99.90;11.60;99621.00;;;;4912114;28;117955;-62
2022/09/16 03:15:32;;;;;;;1.60;0.63;;;11.70;99.90;11.70;99619.00;;;;4895878;28;101348;-62
2022/09/16 03:18:18;;;;;;;0.40;0.40;;;11.70;99.90;11.60;99620.00;;;;4899892;28;87744;-62
2022/09/16 03:21:12;;;;;;;0.53;0.53;;;11.70;99.90;11.60;99614.00;;;;4895875;28;101203;-62
2022/09/16 03:24:11;;;;;;;0.20;0.20;;;11.60;99.90;11.50;99614.00;;;;4897897;28;110918;-63
2022/09/16 03:27:00;;;;;;;0.70;0.60;;;11.60;99.90;11.50;99613.00;;;;4898931;28;87791;-63
2022/09/16 03:29:37;;;;;;;0.50;0.37;;;11.60;99.90;11.50;99618.00;;;;4898496;28;102072;-66
2022/09/16 03:32:19;;;;;;;1.97;0.47;;;11.50;99.90;11.50;99617.00;;;;4894897;28;101717;-61
2022/09/16 03:35:00;;;;;;;0.40;0.40;;;11.50;99.90;11.50;99615.00;;;;4897899;28;88679;-62
2022/09/16 03:37:33;;;;;;;1.13;0.70;;;11.60;99.90;11.50;99617.00;;;;4911298;28;89348;-62
2022/09/16 03:40:07;;;;;;;1.00;0.70;;;11.50;99.90;11.40;99610.00;;;;4896744;28;87748;-60
2022/09/16 03:42:34;;;;;;;0.47;0.33;;;11.50;99.90;11.40;99615.00;;;;4889205;28;88243;-61
2022/09/16 03:44:59;;;;;;;0.50;0.50;;;11.40;99.90;11.40;99613.00;;;;4879975;28;99412;-59
2022/09/16 03:47:25;;;;;;;0.43;0.43;;;11.40;99.90;11.40;99615.00;;;;4898146;28;116852;-62
2022/09/16 03:49:51;;;;;;;0.17;0.17;;;11.40;99.90;11.40;99613.00;;;;4898275;28;109487;-61
2022/09/16 03:52:18;;;;;;;0.87;0.37;;;11.40;99.90;11.40;99613.00;;;;4897708;28;108773;-62
2022/09/16 03:54:44;;;;;;;1.07;0.40;;;11.40;99.90;11.40;99618.00;;;;4898205;28;87916;-62
2022/09/16 03:57:10;;;;;;;0.73;0.50;;;11.40;99.90;11.40;99617.00;;;;4898081;28;106202;-61
2022/09/16 03:59:35;;;;;;;0.37;0.37;;;11.40;99.90;11.40;99614.00;;;;4898061;28;99559;-63
2022/09/16 04:02:01;;;;;;;0.50;0.37;;;11.30;99.90;11.40;99607.00;;;;4897868;28;106960;-62
2022/09/16 04:04:27;;;;;;;0.67;0.50;;;11.40;99.90;11.40;99612.00;;;;4898434;28;91432;-62
2022/09/16 04:06:52;;;;;;;0.33;0.33;;;11.40;99.90;11.50;99617.00;;;;4898368;28;97853;-61
2022/09/16 04:09:18;;;;;;;0.63;0.63;;;11.50;99.90;11.60;99623.00;;;;4897316;28;110546;-61
2022/09/16 04:11:43;;;;;;;1.70;0.70;;;11.50;99.90;11.60;99617.00;;;;4896325;28;99197;-61
2022/09/16 04:14:10;;;;;;;0.40;0.40;;;11.60;99.90;11.70;99614.00;;;;4897029;28;116891;-62
2022/09/16 04:16:36;;;;;;;0.40;0.40;;;11.60;99.90;11.70;99622.00;;;;4897887;28;88078;-62
2022/09/16 04:19:01;;;;;;;0.20;0.20;;;11.50;99.90;11.80;99614.00;;;;4898365;28;110108;-61
2022/09/16 04:21:28;;;;;;;1.90;0.50;;;11.70;99.90;11.80;99604.00;;;;4897288;28;110101;-62
2022/09/16 04:23:53;;;;;;;0.40;0.33;;;11.70;99.90;11.80;99603.00;;;;4897701;28;89011;-62
2022/09/16 04:26:19;;;;;;;0.77;0.43;;;11.80;99.90;11.80;99606.00;;;;4897974;28;89104;-62
2022/09/16 04:28:46;;;;;;;1.23;0.60;;;11.80;99.90;11.80;99608.00;;;;4897964;28;87947;-63
2022/09/16 04:31:14;;;;;;;0.53;0.53;;;11.80;99.90;11.80;99602.00;;;;4898828;28;88170;-63
2022/09/16 04:33:40;;;;;;;1.20;0.63;;;11.70;99.90;11.70;99605.00;;;;4897987;28;88664;-63
2022/09/16 04:36:13;;;;;;;0.40;0.30;;;11.70;99.90;11.70;99609.00;;;;4898116;28;88465;-62
2022/09/16 04:38:41;;;;;;;0.63;0.50;;;11.70;99.90;11.70;99603.00;;;;4898069;28;87755;-62
2022/09/16 04:41:11;;;;;;;0.77;0.63;;;11.70;99.90;11.70;99609.00;;;;4897503;28;87635;-62
2022/09/16 04:43:37;;;;;;;1.40;0.67;;;11.70;99.90;11.60;99615.00;;;;4892135;28;96942;-62
2022/09/16 04:46:04;;;;;;;0.70;0.70;;;11.60;99.90;11.60;99610.00;;;;4890807;28;104723;-62
2022/09/16 04:48:30;;;;;;;0.50;0.50;;;11.60;99.90;11.60;99620.00;;;;4876463;28;88029;-61
2022/09/16 04:51:10;;;;;;;1.00;0.70;;;11.60;99.90;11.50;99620.00;;;;4892631;28;105153;-61
2022/09/16 04:53:42;;;;;;;0.97;0.73;;;11.50;99.90;11.50;99625.00;;;;4893541;28;87946;-62
2022/09/16 04:56:14;;;;;;;0.53;0.50;;;11.50;99.90;11.50;99623.00;;;;4894009;28;88926;-62
2022/09/16 04:58:53;;;;;;;0.30;0.30;;;11.50;99.90;11.40;99615.00;;;;4893656;28;87930;-62
2022/09/16 05:01:22;;;;;;;0.37;0.33;;;11.50;99.90;11.40;99620.00;;;;4892074;28;87596;-61
2022/09/16 05:03:51;;;;;;;0.13;0.13;;;11.40;99.90;11.40;99610.00;;;;4893683;28;92638;-62
2022/09/16 05:06:21;;;;;;;3.10;0.97;;;11.40;99.90;11.40;99619.00;;;;4893744;28;88861;-62
2022/09/16 05:08:49;;;;;;;0.60;0.50;;;11.40;99.90;11.40;99616.00;;;;4894231;28;87118;-62
2022/09/16 05:11:21;;;;;;;0.50;0.50;;;11.40;99.90;11.40;99622.00;;;;4892138;28;88080;-61
2022/09/16 05:13:47;;;;;;;1.47;0.77;;;11.40;99.90;11.40;99624.00;;;;4892694;28;89224;-61
2022/09/16 05:16:16;;;;;;;0.63;0.33;;;11.40;99.90;11.50;99626.00;;;;4892304;28;116515;-63
2022/09/16 05:18:45;;;;;;;0.30;0.30;;;11.50;99.90;11.50;99623.00;;;;4894144;28;88017;-62
2022/09/16 05:21:14;;;;;;;0.30;0.30;;;11.50;99.90;11.50;99623.00;;;;4896571;28;87712;-61
2022/09/16 05:23:41;;;;;;;1.50;1.07;;;11.50;99.90;11.60;99633.00;;;;4896899;28;88235;-61
2022/09/16 05:26:19;;;;;;;2.23;1.20;;;11.60;99.90;11.60;99631.00;;;;4897165;28;87979;-61
2022/09/16 05:28:45;;;;;;;0.37;0.37;;;11.60;99.90;11.60;99626.00;;;;4894216;28;88057;-62
2022/09/16 05:31:12;;;;;;;0.60;0.53;;;11.60;99.90;11.70;99620.00;;;;4897882;28;87974;-62
2022/09/16 05:33:40;;;;;;;1.07;0.60;;;11.70;99.90;11.70;99631.00;;;;4897368;28;87224;-62
2022/09/16 05:36:15;;;;;;;0.87;0.60;;;11.70;99.90;11.80;99625.00;;;;4896862;28;88365;-59
2022/09/16 05:38:41;;;;;;;0.30;0.30;;;11.70;99.90;11.80;99632.00;;;;4895042;28;87888;-60
2022/09/16 05:41:07;;;;;;;0.93;0.50;;;11.80;99.90;11.80;99620.00;;;;4895683;28;97380;-62
2022/09/16 05:43:34;;;;;;;0.70;0.57;;;11.80;99.90;11.80;99620.00;;;;4842739;28;88590;-60
2022/09/16 05:46:00;;;;;;;1.23;0.47;;;11.80;99.90;11.80;99631.00;;;;4896174;28;108032;-62
2022/09/16 05:48:26;;;;;;;0.20;0.20;;;11.80;99.90;11.80;99627.00;;;;4897251;28;87827;-61
2022/09/16 05:50:55;;;;;;;1.30;0.63;;;11.80;99.90;11.80;99623.00;;;;4896472;28;100713;-62
2022/09/16 05:53:22;;;;;;;0.90;0.53;;;11.80;99.90;11.80;99629.00;;;;4896299;28;88208;-62
2022/09/16 05:56:13;;;;;;;0.50;0.50;;;11.80;99.90;11.80;99634.00;;;;4894627;28;87884;-60
2022/09/16 05:58:40;;;;;;;0.50;0.50;;;11.80;99.90;11.90;99632.00;;;;4896701;28;87189;-61
2022/09/16 06:01:11;;;;;;;2.10;1.00;;;11.90;99.90;11.90;99632.00;;;;4896324;28;107724;-61
2022/09/16 06:03:41;;;;;;;0.50;0.50;;;11.90;99.90;12.10;99640.00;;;;4896586;28;88775;-61
2022/09/16 06:06:21;;;;;;;0.40;0.40;;;12.00;99.90;12.20;99630.00;;;;4896297;28;88786;-62
2022/09/16 06:08:47;;;;;;;0.67;0.33;;;12.10;99.90;12.40;99634.00;;;;4894209;28;87806;-62
2022/09/16 06:11:13;;;;;;;0.73;0.37;;;12.30;99.90;12.60;99629.00;;;;4897123;28;88012;-63
2022/09/16 06:13:39;;;;;;;1.67;0.67;;;12.50;99.90;12.80;99631.00;;;;4894740;28;117670;-61
2022/09/16 06:16:08;;;;;;;0.50;0.40;;;12.70;99.90;12.90;99635.00;;;;4895751;28;97045;-62
2022/09/16 06:18:35;;;;;;;0.70;0.40;;;12.80;99.90;13.00;99632.00;;;;4896906;28;88232;-61
2022/09/16 06:21:10;;;;;;;0.17;0.17;;;12.90;99.90;13.10;99641.00;;;;4896191;28;87954;-61
2022/09/16 06:23:37;;;;;;;0.70;0.40;;;13.10;99.90;13.30;99632.00;;;;4896069;28;87154;-62
2022/09/16 06:26:23;;;;;;;3.43;0.50;;;13.20;99.90;13.50;99634.00;;;;4896310;28;87939;-62
2022/09/16 06:28:49;;;;;;;1.90;0.50;;;13.40;99.90;13.70;99640.00;;;;4896752;28;87753;-60
2022/09/16 06:31:22;;;;;;;0.23;0.23;;;13.60;99.90;13.80;99632.00;;;;4896049;28;88996;-61
2022/09/16 06:33:49;;;;;;;1.60;0.60;;;13.80;99.90;13.90;99634.00;;;;4895314;28;88641;-61
2022/09/16 06:36:32;;;;;;;0.50;0.40;;;13.80;99.90;13.90;99647.00;;;;4896083;28;88136;-61
2022/09/16 06:38:58;;;;;;;0.77;0.70;;;13.80;99.90;13.80;99636.00;;;;4896566;28;87749;-61
2022/09/16 06:41:24;;;;;;;0.50;0.50;;;13.80;99.90;13.80;99636.00;;;;4896973;28;87542;-58
2022/09/16 06:43:50;;;;;;;0.67;0.30;;;13.80;99.90;13.80;99630.00;;;;4877082;28;111504;-62
2022/09/16 06:46:25;;;;;;;0.87;0.47;;;13.80;99.90;13.90;99635.00;;;;4895617;28;87908;-61
2022/09/16 06:48:55;;;;;;;3.20;0.57;;;13.90;99.90;14.00;99624.00;;;;4896282;28;103167;-61
2022/09/16 06:51:25;;;;;;;0.87;0.70;;;13.90;99.90;14.10;99636.00;;;;4896830;28;87804;-62
2022/09/16 06:53:53;;;;;;;0.50;0.50;;;14.00;99.90;14.00;99633.00;;;;4896009;28;87830;-61
2022/09/16 06:56:20;;;;;;;0.40;0.40;;;14.00;99.90;14.00;99636.00;;;;4895820;28;89145;-61
2022/09/16 06:58:50;;;;;;;2.07;0.27;;;14.00;99.90;14.10;99627.00;;;;4896167;28;87691;-60
2022/09/16 07:01:30;;;;;;;0.23;0.23;;;14.00;99.90;14.30;99645.00;;;;4896173;28;87946;-62
2022/09/16 07:03:58;;;;;;;0.50;0.43;;;14.20;99.90;14.50;99627.00;;;;4895084;28;88810;-62
2022/09/16 07:06:28;;;;;;;0.68;0.45;;;14.40;99.90;14.70;99639.00;;;;4895978;28;88038;-60
2022/09/16 07:08:54;;;;;;;4.83;0.73;;;14.60;99.90;14.80;99632.00;;;;4895431;28;87815;-59
2022/09/16 07:11:21;;;;;;;1.17;0.83;;;14.70;99.90;14.90;99643.00;;;;4894510;28;87660;-60
2022/09/16 07:13:48;;;;;;;0.47;0.40;;;14.80;99.90;15.20;99638.00;;;;4893191;28;107970;-61
2022/09/16 07:16:18;;;;;;;0.95;0.45;;;15.00;99.90;15.50;99645.00;;;;4895950;28;87818;-58
2022/09/16 07:18:45;;;;;;;0.95;0.82;;;15.30;99.90;15.60;99648.00;;;;4896197;28;87787;-61
2022/09/16 07:21:18;;;;;;;0.82;0.82;;;15.50;99.90;15.20;99643.00;;;;4895279;28;88739;-63
2022/09/16 07:23:45;;;;;;;1.13;0.63;;;15.40;99.90;14.80;99640.00;;;;4895827;28;88088;-62
2022/09/16 07:26:20;;;;;;;0.30;0.30;;;15.00;99.90;14.40;99638.00;;;;4895119;28;87978;-64
2022/09/16 07:28:48;;;;;;;0.70;0.50;;;14.60;99.90;14.20;99639.00;;;;4895505;28;87583;-63
2022/09/16 07:31:23;;;;;;;0.53;0.53;;;14.30;99.90;14.00;99634.00;;;;4899515;28;87843;-64
2022/09/16 07:33:49;;;;;;;1.03;0.57;;;14.10;99.90;13.90;99642.00;;;;4898795;28;88797;-63
2022/09/16 07:36:21;;;;;;;1.60;0.87;;;14.00;99.90;13.90;99640.00;;;;4898789;28;88040;-65
2022/09/16 07:38:47;;;;;;;0.73;0.20;;;14.00;99.90;13.90;99642.00;;;;4899042;28;87132;-64
2022/09/16 07:41:23;;;;;;;2.33;0.60;;;13.90;99.90;14.00;99647.00;;;;4898575;28;94538;-65
2022/09/16 07:43:49;;;;;;;0.50;0.50;;;13.90;99.90;14.00;99645.00;;;;4898249;28;88313;-63
2022/09/16 07:46:17;;;;;;;2.83;0.33;;;14.00;99.90;14.00;99637.00;;;;4897253;28;89233;-64
2022/09/16 07:48:45;;;;;;;0.40;0.40;;;14.00;99.90;14.10;99638.00;;;;4898851;28;87860;-63
2022/09/16 07:51:20;;;;;;;2.27;0.70;;;14.00;99.90;14.20;99634.00;;;;4898842;28;87870;-63
2022/09/16 07:53:46;;;;;;;0.57;0.50;;;14.10;99.90;14.40;99636.00;;;;4912772;28;88179;-64
2022/09/16 07:56:16;;;;;;;0.90;0.60;;;14.30;99.90;14.50;99637.00;;;;4897893;28;106514;-63
2022/09/16 07:58:44;;;;;;;0.33;0.33;;;14.40;99.90;14.70;99636.00;;;;4898215;28;87810;-63
2022/09/16 08:01:11;;;;;;;0.73;0.53;;;14.50;99.90;14.80;99635.00;;;;4898555;28;88404;-63
2022/09/16 08:03:38;;;;;;;1.07;0.67;;;14.70;99.90;15.00;99627.00;;;;4897981;28;109286;-63
2022/09/16 08:06:14;;;;;;;0.77;0.50;;;14.80;99.90;15.10;99642.00;;;;4898112;28;87865;-63
2022/09/16 08:08:40;;;;;;;0.32;0.30;;;15.00;99.90;15.30;99633.00;;;;4881163;28;87722;-63
2022/09/16 08:11:07;;;;;;;3.92;0.90;;;15.20;99.90;15.40;99631.00;;;;4897796;28;98185;-64
2022/09/16 08:13:34;;;;;;;2.67;0.88;;;15.30;99.90;15.50;99629.00;;;;4897593;28;89187;-63
2022/09/16 08:16:09;;;;;;;0.43;0.40;;;15.40;99.90;15.60;99633.00;;;;4897153;28;90517;-63
2022/09/16 08:18:35;;;;;;;2.50;0.40;;;15.50;99.90;15.60;99630.00;;;;4880279;28;88099;-62
2022/09/16 08:21:13;;;;;;;1.25;0.80;;;15.50;99.90;15.80;99633.00;;;;4897853;28;87930;-63
2022/09/16 08:23:39;;;;;;;1.45;1.13;;;15.60;99.90;15.90;99634.00;;;;4897061;28;106889;-61
2022/09/16 08:26:07;;;;;;;0.52;0.52;;;15.80;99.90;16.10;99631.00;;;;4898070;28;87723;-62
2022/09/16 08:28:33;;;;;;;0.77;0.65;;;16.00;99.90;16.20;99634.00;;;;4898316;28;87079;-62
2022/09/16 08:31:00;;;;;;;0.30;0.30;;;16.10;99.90;16.30;99640.00;;;;4898240;28;87787;-63
2022/09/16 08:33:27;;;;;;;1.13;0.60;;;16.20;99.90;16.50;99634.00;;;;4897867;28;88202;-63
2022/09/16 08:36:13;;;;;;;0.40;0.40;;;16.30;99.90;16.60;99640.00;;;;4896904;28;88675;-62
2022/09/16 08:38:40;;;;;;;0.30;0.30;;;16.40;99.90;16.60;99641.00;;;;4895119;28;87809;-60
2022/09/16 08:41:20;;;;;;;0.75;0.73;;;16.50;99.90;16.60;99626.00;;;;4896888;28;87841;-61
2022/09/16 08:44:30;;;;;;;0.85;0.57;;;16.50;99.90;16.60;99640.00;;;;4896516;28;89015;-61
2022/09/16 08:47:17;;;;;;;2.10;0.68;;;16.50;99.90;16.80;99630.00;;;;4895068;28;108747;-60
2022/09/16 08:49:45;;;;;;;0.25;0.25;;;16.60;99.90;16.90;99639.00;;;;4896740;28;99382;-61
2022/09/16 08:52:38;;;;;;;0.50;0.30;;;16.80;99.90;16.80;99629.00;;;;4880434;28;88163;-60
2022/09/16 08:55:11;;;;;;;1.08;0.70;;;16.80;99.90;16.70;99633.00;;;;4894208;28;87207;-60
2022/09/16 08:57:51;;;;;;;0.47;0.38;;;16.70;99.00;16.60;99630.00;;;;4911653;28;87978;-61
2022/09/16 09:00:18;;;;;;;0.20;0.20;;;16.50;99.50;16.50;99628.00;;;;4911024;28;101772;-61
2022/09/16 09:03:11;;;;;;;1.00;0.63;;;16.50;99.70;16.10;99624.00;;;;4897551;28;88786;-61
2022/09/16 09:05:52;;;;;;;2.08;1.02;;;16.30;99.90;15.60;99626.00;;;;4894746;28;109658;-64
2022/09/16 09:08:58;;;;;;;0.40;0.40;;;15.80;99.90;14.90;99638.00;;;;4896506;28;88148;-63
2022/09/16 09:12:03;;;;;;;0.52;0.52;;;15.30;99.90;14.40;99647.00;;;;4911311;28;101399;-63
2022/09/16 09:15:25;;;;;;;1.13;0.30;;;14.80;99.90;14.00;99647.00;;;;4896505;28;87945;-63
2022/09/16 09:18:35;;;;;;;0.63;0.57;;;14.40;99.90;13.90;99651.00;;;;4899681;28;88066;-63
2022/09/16 09:22:05;;;;;;;0.83;0.50;;;14.00;99.90;13.70;99639.00;;;;4882307;28;88221;-63
2022/09/16 09:25:15;;;;;;;0.70;0.50;;;13.90;99.90;13.70;99645.00;;;;4894127;28;87178;-62
2022/09/16 09:28:09;;;;;;;2.63;0.60;;;13.80;99.90;13.70;99648.00;;;;4897734;28;87896;-62
2022/09/16 09:30:40;;;;;;;0.80;0.60;;;13.70;99.90;13.90;99638.00;;;;4896586;28;103056;-62
2022/09/16 09:33:21;;;;;;;0.33;0.33;;;13.80;99.90;14.20;99643.00;;;;4893031;28;109759;-61
2022/09/16 09:36:19;;;;;;;0.37;0.37;;;14.00;99.90;14.60;99637.00;;;;4911329;28;99655;-61
2022/09/16 09:39:20;;;;;;;4.80;0.87;;;14.30;99.90;15.00;99635.00;;;;4897015;28;87803;-61
2022/09/16 09:41:58;;;;;;;2.13;0.63;;;14.80;99.90;15.50;99624.00;;;;4896215;28;88116;-62
2022/09/16 09:44:57;;;;;;;0.83;0.70;;;15.20;99.90;15.80;99623.00;;;;4878764;28;88646;-61
2022/09/16 09:47:38;;;;;;;0.57;0.57;;;15.50;99.90;15.90;99612.00;;;;4869862;28;87795;-60
2022/09/16 09:50:40;;;;;;;1.42;0.65;;;15.70;99.90;15.90;99604.00;;;;4878573;28;87854;-58
2022/09/16 09:53:28;;;;;;;0.70;0.60;;;15.80;99.90;16.10;99603.00;;;;4911081;28;87380;-60
2022/09/16 09:56:07;;;;;;;1.55;0.65;;;16.00;99.90;16.30;99610.00;;;;4910926;28;88090;-61
2022/09/16 09:58:43;;;;;;;0.30;0.30;;;16.10;99.90;16.70;99599.00;;;;4894402;28;103322;-61
2022/09/16 10:01:10;;;;;;;0.60;0.32;;;16.50;99.90;17.20;99595.00;;;;4895133;28;88815;-61
2022/09/16 10:03:37;;;;;;;1.30;0.52;;;16.90;99.90;17.50;99596.00;;;;4897258;28;89110;-58
2022/09/16 10:06:03;;;;;;;0.25;0.25;;;17.20;99.50;17.50;99591.00;;;;4908464;28;88772;-59
2022/09/16 10:08:45;;;;;;;0.75;0.50;;;17.30;98.90;17.50;99594.00;;;;4897211;28;87733;-61
2022/09/16 10:11:23;;;;;;;0.60;0.60;;;17.40;99.20;17.50;99582.00;;;;4896345;28;87754;-61
2022/09/16 10:13:59;;;;;;;2.58;0.70;;;17.40;98.00;17.50;99588.00;;;;4892810;28;108632;-61
2022/09/16 10:16:31;;;;;;;0.55;0.50;;;17.40;96.60;17.40;99603.00;;;;4894077;28;89896;-61
2022/09/16 10:19:16;;;;;;;0.50;0.50;;;17.40;96.90;17.40;99592.00;;;;4909988;28;87132;-61
2022/09/16 10:21:55;;;;;;;0.30;0.30;;;17.30;96.30;17.70;99598.00;;;;4910846;28;87912;-61
2022/09/16 10:24:32;;;;;;;0.60;0.40;;;17.50;96.60;18.10;99602.00;;;;4908829;28;88666;-61
2022/09/16 10:27:00;;;;;;;0.45;0.30;;;17.80;95.90;18.10;99589.00;;;;4895834;28;88954;-59
2022/09/16 10:29:26;;;;;;;0.30;0.30;;;18.00;94.50;18.10;99594.00;;;;4895864;28;92677;-60
2022/09/16 10:31:52;;;;;;;0.40;0.30;;;18.00;94.90;18.10;99599.00;;;;4897021;28;88178;-58
2022/09/16 10:34:26;;;;;;;0.52;0.45;;;18.00;94.50;18.10;99602.00;;;;4877629;28;93153;-61
2022/09/16 10:37:04;;;;;;;1.05;0.57;;;18.00;94.30;18.10;99597.00;;;;4910213;28;88497;-59
2022/09/16 10:39:32;;;;;;;0.50;0.50;;;18.00;94.90;18.00;99598.00;;;;4894602;28;87760;-58
2022/09/16 10:41:58;;;;;;;0.75;0.50;;;17.90;94.00;17.90;99601.00;;;;4896258;28;88014;-58
2022/09/16 10:44:30;;;;;;;0.20;0.20;;;17.90;94.20;18.00;99591.00;;;;4895875;28;102280;-58
2022/09/16 10:47:16;;;;;;;0.50;0.30;;;17.80;94.00;18.40;99591.00;;;;4896016;28;88210;-59
2022/09/16 10:49:56;;;;;;;0.57;0.30;;;18.10;94.10;18.80;99608.00;;;;4909435;28;88156;-60
2022/09/16 10:52:29;;;;;;;0.30;0.30;;;18.50;93.60;19.10;99589.00;;;;4909888;28;88772;-60
2022/09/16 10:54:55;;;;;;;0.55;0.32;;;18.80;93.20;19.30;99597.00;;;;4909684;28;88120;-61
2022/09/16 10:57:31;;;;;;;0.65;0.40;;;19.00;91.90;19.20;99597.00;;;;4895958;28;93132;-61
2022/09/16 11:00:14;;;;;;;0.35;0.35;;;19.10;90.80;19.20;99593.00;;;;4896749;28;87910;-61
2022/09/16 11:03:07;;;;;;;0.20;0.20;;;19.10;90.30;19.20;99586.00;;;;4895682;28;87951;-61
2022/09/16 11:05:48;;;;;;;0.98;0.68;;;19.10;90.10;19.30;99581.00;;;;4898444;28;95731;-61
2022/09/16 11:08:43;;;;;;;1.27;0.50;;;19.10;87.00;19.30;99584.00;;;;4897204;28;87799;-61
2022/09/16 11:11:36;;;;;;;0.20;0.13;;;19.10;86.80;19.20;99589.00;;;;4900415;28;87110;-58
2022/09/16 11:14:32;;;;;;;0.38;0.20;;;19.10;87.50;19.20;99589.00;;;;4895891;28;100458;-60
2022/09/16 11:17:31;;;;;;;0.13;0.13;;;19.10;86.20;19.00;99590.00;;;;4895647;28;110748;-61
2022/09/16 11:20:21;;;;;;;0.70;0.60;;;19.00;85.30;18.60;99611.00;;;;4898282;28;88867;-61
2022/09/16 11:23:22;;;;;;;0.95;0.65;;;18.70;85.40;18.20;99604.00;;;;4899109;28;88308;-61
2022/09/16 11:26:32;;;;;;;0.10;0.10;;;18.30;85.90;17.70;99605.00;;;;4913168;28;87936;-61